Time;durP1;ratioP1;P1;durP2;ratioP2;P2;SDS_P1;SDS_P2;PMS_P1;PMS_P2;Temp;Humidity;BMP_temperature;BMP_pressure;BME280_temperature;BME280_humidity;BME280_pressure;Samples;Min_cycle;Max_cycle;Signal;HPM_P1;HPM_P2
2020/12/26 00:02:23;;;;;;;21.10;10.30;;;-0.10;99.90;;;;;;5039580;28;20226;-58
2020/12/26 00:04:50;;;;;;;20.30;10.57;;;-0.10;99.90;;;;;;5039193;28;20286;-59
2020/12/26 00:07:16;;;;;;;23.07;11.90;;;-0.10;99.90;;;;;;5036338;28;20206;-57
2020/12/26 00:09:42;;;;;;;20.80;10.77;;;-0.20;99.90;;;;;;5039817;28;20209;-57
2020/12/26 00:12:09;;;;;;;20.70;10.40;;;-0.20;99.90;;;;;;5037525;28;20725;-59
2020/12/26 00:14:35;;;;;;;23.57;11.10;;;-0.20;99.90;;;;;;5039228;28;20335;-57
2020/12/26 00:17:03;;;;;;;19.43;10.00;;;-0.10;99.90;;;;;;5037153;28;20923;-55
2020/12/26 00:19:30;;;;;;;18.57;10.10;;;-0.20;99.90;;;;;;5035129;28;20200;-60
2020/12/26 00:21:56;;;;;;;19.07;9.30;;;-0.10;99.90;;;;;;5038035;28;20220;-56
2020/12/26 00:24:22;;;;;;;18.73;9.20;;;-0.20;99.90;;;;;;5033499;28;20215;-59
2020/12/26 00:26:49;;;;;;;19.43;9.57;;;-0.30;99.90;;;;;;5037476;28;20214;-55
2020/12/26 00:29:15;;;;;;;19.60;10.00;;;-0.40;99.90;;;;;;5038531;28;20200;-54
2020/12/26 00:31:42;;;;;;;18.23;9.40;;;-0.50;99.90;;;;;;5037229;28;20286;-56
2020/12/26 00:34:09;;;;;;;17.43;9.53;;;-0.70;99.90;;;;;;5035503;28;20207;-56
2020/12/26 00:36:37;;;;;;;17.13;8.53;;;-0.60;99.90;;;;;;5039696;28;20215;-56
2020/12/26 00:39:07;;;;;;;17.70;8.30;;;-0.70;99.90;;;;;;5037278;28;20582;-58
2020/12/26 00:41:33;;;;;;;20.67;9.50;;;-0.80;99.90;;;;;;5040723;28;20223;-57
2020/12/26 00:43:59;;;;;;;16.07;9.13;;;-0.70;99.90;;;;;;5036504;28;20693;-57
2020/12/26 00:46:26;;;;;;;16.27;8.63;;;-0.80;99.90;;;;;;5035713;28;20239;-56
2020/12/26 00:48:52;;;;;;;21.10;9.53;;;-0.80;99.90;;;;;;5038174;28;20200;-55
2020/12/26 00:51:19;;;;;;;18.90;9.73;;;-0.70;99.90;;;;;;5037246;28;20208;-55
2020/12/26 00:53:45;;;;;;;19.73;9.27;;;-0.60;99.90;;;;;;5040072;28;20203;-55
2020/12/26 00:56:12;;;;;;;20.17;10.27;;;-0.60;99.90;;;;;;5092210;22;20229;-60
2020/12/26 00:58:38;;;;;;;19.27;10.03;;;-0.60;99.90;;;;;;5090004;28;20655;-60
2020/12/26 01:01:04;;;;;;;16.90;9.73;;;-0.70;99.90;;;;;;5088534;28;20268;-57
2020/12/26 01:03:30;;;;;;;20.47;10.03;;;-0.60;99.90;;;;;;5094391;28;20216;-61
2020/12/26 01:05:57;;;;;;;19.77;9.27;;;-0.60;99.90;;;;;;5091918;28;20240;-57
2020/12/26 01:08:24;;;;;;;19.80;9.57;;;-0.60;99.90;;;;;;5094481;28;20216;-54
2020/12/26 01:10:50;;;;;;;18.53;8.87;;;-0.60;99.90;;;;;;5094325;28;20262;-56
2020/12/26 01:13:17;;;;;;;17.90;9.03;;;-0.80;99.90;;;;;;5093514;28;20205;-53
2020/12/26 01:15:45;;;;;;;20.63;9.40;;;-1.00;99.90;;;;;;5093904;28;20244;-61
2020/12/26 01:18:11;;;;;;;18.13;9.37;;;-1.10;99.90;;;;;;5094428;28;20232;-56
2020/12/26 01:20:37;;;;;;;20.90;9.83;;;-1.00;99.90;;;;;;5093786;28;20217;-58
2020/12/26 01:23:03;;;;;;;19.00;8.67;;;-1.00;99.90;;;;;;5094502;28;20209;-53
2020/12/26 01:25:31;;;;;;;18.93;10.13;;;-1.00;99.90;;;;;;5094266;28;20221;-54
2020/12/26 01:27:57;;;;;;;18.27;9.47;;;-1.00;99.90;;;;;;5094348;28;20224;-56
2020/12/26 01:30:23;;;;;;;19.27;9.50;;;-0.90;99.90;;;;;;5094000;28;20204;-56
2020/12/26 01:32:49;;;;;;;20.23;9.20;;;-0.90;99.90;;;;;;5094326;28;20214;-58
2020/12/26 01:35:16;;;;;;;18.37;9.47;;;-0.80;99.90;;;;;;5089080;28;20226;-57
2020/12/26 01:37:42;;;;;;;24.40;10.50;;;-0.70;99.90;;;;;;5086284;28;20219;-58
2020/12/26 01:40:10;;;;;;;17.53;9.00;;;-0.80;99.90;;;;;;5093647;28;20205;-53
2020/12/26 01:42:38;;;;;;;18.23;9.53;;;-0.80;99.90;;;;;;5093946;28;20297;-54
2020/12/26 01:45:05;;;;;;;22.13;9.50;;;-1.00;99.90;;;;;;5093537;28;20213;-57
2020/12/26 01:47:32;;;;;;;20.30;10.23;;;-0.90;99.90;;;;;;5094014;28;20201;-56
2020/12/26 01:49:59;;;;;;;21.50;9.80;;;-0.90;99.90;;;;;;5093730;28;20204;-57
2020/12/26 01:52:26;;;;;;;21.40;9.50;;;-0.70;99.90;;;;;;5093895;28;20200;-56
2020/12/26 01:54:53;;;;;;;20.53;8.13;;;-0.70;99.90;;;;;;5093248;28;20240;-57
2020/12/26 01:57:23;;;;;;;19.67;9.10;;;-0.70;99.90;;;;;;5093375;28;20194;-54
2020/12/26 01:59:50;;;;;;;19.90;9.47;;;-0.60;99.90;;;;;;5094026;28;20201;-58
2020/12/26 02:02:16;;;;;;;22.00;9.93;;;-0.60;99.90;;;;;;5093166;28;20225;-53
2020/12/26 02:04:42;;;;;;;23.37;10.23;;;-0.60;99.90;;;;;;5093504;28;20205;-56
2020/12/26 02:07:09;;;;;;;20.83;10.50;;;-0.50;99.90;;;;;;5093094;28;20198;-54
2020/12/26 02:09:35;;;;;;;20.73;10.13;;;-0.40;99.90;;;;;;5093680;28;20209;-55
2020/12/26 02:12:02;;;;;;;20.13;9.33;;;-0.20;99.90;;;;;;5088461;28;20369;-59
2020/12/26 02:14:29;;;;;;;22.13;9.57;;;-0.20;99.90;;;;;;5080119;28;20251;-57
2020/12/26 02:16:56;;;;;;;21.80;9.47;;;-0.10;99.90;;;;;;5092852;28;20258;-61
2020/12/26 02:19:24;;;;;;;24.73;10.37;;;0.00;99.90;;;;;;5093311;28;20213;-56
2020/12/26 02:21:50;;;;;;;21.57;10.70;;;0.20;99.90;;;;;;5091842;28;20224;-57
2020/12/26 02:24:18;;;;;;;21.00;10.93;;;0.20;99.90;;;;;;5092883;28;20203;-57
2020/12/26 02:26:44;;;;;;;19.67;9.80;;;0.20;99.90;;;;;;5093000;28;20217;-54
2020/12/26 02:29:10;;;;;;;20.80;9.33;;;0.30;99.90;;;;;;5092936;28;20231;-55
2020/12/26 02:31:37;;;;;;;26.97;10.13;;;0.30;99.90;;;;;;5092809;28;20190;-55
2020/12/26 02:34:04;;;;;;;22.00;9.57;;;0.40;99.90;;;;;;5092921;28;20205;-58
2020/12/26 02:36:31;;;;;;;18.37;9.87;;;0.40;99.90;;;;;;5092805;28;20219;-58
2020/12/26 02:38:57;;;;;;;19.30;9.50;;;0.40;99.90;;;;;;5093023;28;20204;-54
2020/12/26 02:41:25;;;;;;;24.07;10.87;;;0.60;99.90;;;;;;5092530;28;20214;-55
2020/12/26 02:43:51;;;;;;;23.00;10.50;;;0.60;99.90;;;;;;5092712;28;20200;-57
2020/12/26 02:46:17;;;;;;;19.23;9.27;;;0.50;99.90;;;;;;5092182;28;20590;-52
2020/12/26 02:48:44;;;;;;;19.60;9.80;;;0.60;99.90;;;;;;5092489;28;20193;-57
2020/12/26 02:51:10;;;;;;;21.13;10.37;;;0.60;99.90;;;;;;5089066;28;20709;-56
2020/12/26 02:53:36;;;;;;;21.13;10.40;;;0.70;99.90;;;;;;5080173;28;20206;-61
2020/12/26 02:56:03;;;;;;;22.33;10.87;;;0.80;99.90;;;;;;5085277;28;20286;-59
2020/12/26 02:58:31;;;;;;;24.97;11.73;;;0.80;99.90;;;;;;5089108;28;20201;-55
2020/12/26 03:00:57;;;;;;;24.00;10.83;;;0.80;99.90;;;;;;5089998;28;20224;-56
2020/12/26 03:03:23;;;;;;;21.77;10.93;;;1.00;99.90;;;;;;5091477;28;20197;-58
2020/12/26 03:05:50;;;;;;;22.90;11.77;;;1.00;99.90;;;;;;5091088;28;20727;-52
2020/12/26 03:08:16;;;;;;;23.60;10.40;;;1.00;99.90;;;;;;5091504;28;20209;-58
2020/12/26 03:10:42;;;;;;;20.40;10.30;;;1.10;99.90;;;;;;5091061;28;20657;-54
2020/12/26 03:13:08;;;;;;;22.03;10.80;;;1.10;99.90;;;;;;5091419;28;20205;-60
2020/12/26 03:15:36;;;;;;;23.10;11.43;;;1.10;99.90;;;;;;5083715;28;20225;-55
2020/12/26 03:18:02;;;;;;;23.33;11.43;;;1.20;99.90;;;;;;5081625;28;20219;-59
2020/12/26 03:20:28;;;;;;;21.57;11.13;;;1.30;99.90;;;;;;5088282;28;20201;-57
2020/12/26 03:22:55;;;;;;;25.27;11.83;;;1.30;99.90;;;;;;5087754;28;20222;-58
2020/12/26 03:25:21;;;;;;;23.10;11.80;;;1.30;99.90;;;;;;5089523;28;20213;-56
2020/12/26 03:27:47;;;;;;;25.13;11.67;;;1.40;99.90;;;;;;5091591;28;20197;-58
2020/12/26 03:30:14;;;;;;;22.37;11.37;;;1.40;99.90;;;;;;5090414;28;20206;-57
2020/12/26 03:32:41;;;;;;;22.47;11.53;;;1.30;99.90;;;;;;5074734;28;20206;-58
2020/12/26 03:35:07;;;;;;;22.93;11.30;;;1.40;99.90;;;;;;5071032;28;20595;-57
2020/12/26 03:37:35;;;;;;;23.80;12.10;;;1.30;99.90;;;;;;5071780;28;20198;-54
2020/12/26 03:40:01;;;;;;;22.13;11.40;;;1.30;99.90;;;;;;5081085;28;20202;-55
2020/12/26 03:42:28;;;;;;;24.13;12.33;;;1.20;99.90;;;;;;5088336;28;20281;-56
2020/12/26 03:44:54;;;;;;;22.43;11.77;;;1.30;99.90;;;;;;5085365;28;20227;-55
2020/12/26 03:47:20;;;;;;;23.53;11.47;;;1.30;99.90;;;;;;5089626;28;20201;-55
2020/12/26 03:49:47;;;;;;;19.33;10.90;;;1.40;99.90;;;;;;5090616;28;20205;-57
2020/12/26 03:52:14;;;;;;;21.60;11.40;;;1.30;99.90;;;;;;5090873;28;20198;-57
2020/12/26 03:54:40;;;;;;;25.07;12.47;;;1.40;99.90;;;;;;5090180;28;20563;-59
2020/12/26 03:57:06;;;;;;;25.43;12.10;;;1.40;99.90;;;;;;5091961;28;20205;-58
2020/12/26 03:59:33;;;;;;;22.97;12.37;;;1.40;99.90;;;;;;5091102;28;20656;-54
2020/12/26 04:01:59;;;;;;;24.97;12.20;;;1.40;99.90;;;;;;5091995;28;20217;-57
2020/12/26 04:04:25;;;;;;;21.83;10.73;;;1.40;99.90;;;;;;5090736;28;20198;-61
2020/12/26 04:06:52;;;;;;;22.03;11.13;;;1.40;99.90;;;;;;5076282;28;20249;-60
2020/12/26 04:09:18;;;;;;;23.33;12.07;;;1.40;99.90;;;;;;5085966;28;20193;-55
2020/12/26 04:11:46;;;;;;;26.00;12.13;;;1.30;99.90;;;;;;5091535;28;20201;-56
2020/12/26 04:14:13;;;;;;;24.03;11.13;;;1.30;99.90;;;;;;5091327;28;20209;-60
2020/12/26 04:16:39;;;;;;;26.50;12.13;;;1.40;99.90;;;;;;5090666;28;20221;-57
2020/12/26 04:19:05;;;;;;;26.63;13.53;;;1.30;99.90;;;;;;5090821;28;20198;-54
2020/12/26 04:21:31;;;;;;;23.03;12.27;;;1.30;99.90;;;;;;5091656;28;20488;-59
2020/12/26 04:23:59;;;;;;;23.40;11.27;;;1.30;99.90;;;;;;5090887;28;20206;-59
2020/12/26 04:26:25;;;;;;;24.97;13.07;;;1.40;99.90;;;;;;5091338;28;20226;-58
2020/12/26 04:28:51;;;;;;;26.23;12.60;;;1.40;99.90;;;;;;5090842;28;20663;-54
2020/12/26 04:31:18;;;;;;;24.03;13.03;;;1.60;99.90;;;;;;5090655;28;20205;-54
2020/12/26 04:33:45;;;;;;;26.13;13.47;;;1.50;99.90;;;;;;5095278;28;20194;-58
2020/12/26 04:36:11;;;;;;;27.53;12.97;;;1.60;99.90;;;;;;5094883;28;20262;-55
2020/12/26 04:38:38;;;;;;;26.87;14.10;;;1.60;99.90;;;;;;5095267;28;20262;-58
2020/12/26 04:41:05;;;;;;;25.30;13.03;;;1.70;99.90;;;;;;5095426;28;20214;-58
2020/12/26 04:43:32;;;;;;;27.87;14.03;;;1.70;99.90;;;;;;5094696;28;20201;-52
2020/12/26 04:45:59;;;;;;;24.50;13.13;;;1.70;99.90;;;;;;5094871;28;20566;-54
2020/12/26 04:48:27;;;;;;;27.53;13.80;;;1.70;99.90;;;;;;5092210;28;20202;-54
2020/12/26 04:50:58;;;;;;;23.97;12.70;;;1.80;99.90;;;;;;5092179;28;20251;-58
2020/12/26 04:53:31;;;;;;;26.07;13.00;;;1.70;99.90;;;;;;5094480;28;20283;-56
2020/12/26 04:56:00;;;;;;;24.13;13.67;;;1.70;99.90;;;;;;5093437;28;20720;-53
2020/12/26 04:58:29;;;;;;;22.67;12.93;;;1.70;99.90;;;;;;5094943;28;20330;-56
2020/12/26 05:00:56;;;;;;;26.73;13.53;;;1.80;99.90;;;;;;5094737;28;20197;-57
2020/12/26 05:03:26;;;;;;;24.07;12.27;;;1.80;99.90;;;;;;5094975;28;20202;-54
2020/12/26 05:05:54;;;;;;;23.60;12.23;;;1.80;99.90;;;;;;5094409;28;20576;-56
2020/12/26 05:08:20;;;;;;;22.87;13.37;;;1.80;99.90;;;;;;5094494;28;20271;-59
2020/12/26 05:10:46;;;;;;;22.40;13.47;;;1.80;99.90;;;;;;5095155;28;20264;-57
2020/12/26 05:13:13;;;;;;;22.97;12.23;;;1.90;99.90;;;;;;5094113;28;20204;-58
2020/12/26 05:15:40;;;;;;;26.97;13.07;;;1.80;99.90;;;;;;5074401;28;20222;-61
2020/12/26 05:18:06;;;;;;;25.00;13.17;;;1.80;99.90;;;;;;5078622;28;20208;-55
2020/12/26 05:20:33;;;;;;;25.13;13.67;;;1.80;99.90;;;;;;5094109;28;20198;-54
2020/12/26 05:23:09;;;;;;;24.40;13.03;;;1.90;99.90;;;;;;5094592;28;20252;-57
2020/12/26 05:25:39;;;;;;;23.43;12.40;;;1.80;99.90;;;;;;5094427;28;20296;-58
2020/12/26 05:28:14;;;;;;;24.83;13.63;;;1.90;99.90;;;;;;5090381;28;20201;-59
2020/12/26 05:30:42;;;;;;;24.57;12.50;;;1.90;99.90;;;;;;5091526;28;20200;-57
2020/12/26 05:33:09;;;;;;;25.33;12.87;;;1.90;99.90;;;;;;5091187;28;20202;-57
2020/12/26 05:35:41;;;;;;;21.63;11.63;;;1.90;99.90;;;;;;5092542;28;20666;-57
2020/12/26 05:38:15;;;;;;;23.13;12.47;;;1.90;99.90;;;;;;5093384;28;20202;-58
2020/12/26 05:40:46;;;;;;;21.63;12.40;;;1.90;99.90;;;;;;5094372;28;20202;-58
2020/12/26 05:43:16;;;;;;;21.93;12.53;;;1.90;99.90;;;;;;5091820;28;20639;-55
2020/12/26 05:45:43;;;;;;;22.30;12.70;;;1.90;99.90;;;;;;5092934;28;20231;-60
2020/12/26 05:48:11;;;;;;;24.90;12.23;;;1.90;99.90;;;;;;5093612;28;20206;-55
2020/12/26 05:50:38;;;;;;;18.80;11.17;;;1.90;99.90;;;;;;5093987;28;20201;-58
2020/12/26 05:53:06;;;;;;;21.07;12.47;;;1.90;99.90;;;;;;5093625;28;20193;-57
2020/12/26 05:55:41;;;;;;;24.10;13.17;;;1.90;99.90;;;;;;5093182;28;20234;-59
2020/12/26 05:58:08;;;;;;;20.83;11.30;;;2.00;99.90;;;;;;5093757;28;20201;-57
2020/12/26 06:00:36;;;;;;;22.70;12.83;;;2.00;99.90;;;;;;5093397;28;20579;-55
2020/12/26 06:03:24;;;;;;;22.20;11.43;;;2.10;99.90;;;;;;5093700;28;20222;-57
2020/12/26 06:05:52;;;;;;;23.83;12.20;;;2.10;99.90;;;;;;5077424;28;20598;-52
2020/12/26 06:08:20;;;;;;;20.60;11.77;;;2.10;99.90;;;;;;5093507;28;20224;-56
2020/12/26 06:10:50;;;;;;;23.03;11.43;;;2.10;99.90;;;;;;5092846;28;20212;-60
2020/12/26 06:13:18;;;;;;;22.43;12.37;;;2.10;99.90;;;;;;5079809;28;20204;-59
2020/12/26 06:15:55;;;;;;;20.50;11.23;;;2.10;99.90;;;;;;5088135;28;20221;-54
2020/12/26 06:18:22;;;;;;;20.07;11.17;;;2.20;99.90;;;;;;5092730;28;20694;-56
2020/12/26 06:20:51;;;;;;;20.23;10.80;;;2.20;99.90;;;;;;5092735;28;20201;-58
2020/12/26 06:23:18;;;;;;;18.13;10.60;;;2.20;99.90;;;;;;5093000;28;20266;-54
2020/12/26 06:25:46;;;;;;;22.77;10.93;;;2.20;99.90;;;;;;5092846;28;20273;-56
2020/12/26 06:28:25;;;;;;;21.47;10.77;;;2.30;99.90;;;;;;5093487;28;20205;-52
2020/12/26 06:30:53;;;;;;;18.17;10.47;;;2.30;99.90;;;;;;5092644;28;20607;-53
2020/12/26 06:33:23;;;;;;;18.43;10.73;;;2.30;99.90;;;;;;5092974;28;20663;-54
2020/12/26 06:35:51;;;;;;;19.47;10.27;;;2.30;99.90;;;;;;5092608;28;20768;-55
2020/12/26 06:38:19;;;;;;;21.03;10.77;;;2.30;99.90;;;;;;5093344;28;20202;-56
2020/12/26 06:40:56;;;;;;;19.80;9.90;;;2.30;99.90;;;;;;5092852;28;20198;-53
2020/12/26 06:43:42;;;;;;;18.97;10.53;;;2.30;99.90;;;;;;5086436;28;20615;-54
2020/12/26 06:46:09;;;;;;;21.13;11.30;;;2.30;99.90;;;;;;5091785;28;20225;-54
2020/12/26 06:48:36;;;;;;;15.77;9.73;;;2.30;99.90;;;;;;5092503;28;20193;-53
2020/12/26 06:51:24;;;;;;;19.07;10.57;;;2.30;99.90;;;;;;5091095;28;20625;-56
2020/12/26 06:53:51;;;;;;;19.47;11.00;;;2.30;99.90;;;;;;5086741;28;20194;-53
2020/12/26 06:56:47;;;;;;;20.20;11.00;;;2.30;99.90;;;;;;5101627;22;20275;-58
2020/12/26 06:59:15;;;;;;;18.30;10.43;;;2.30;99.90;;;;;;5071238;28;20209;-58
2020/12/26 07:01:43;;;;;;;20.17;10.53;;;2.30;99.90;;;;;;5071312;28;20210;-57
2020/12/26 07:04:16;;;;;;;18.20;10.17;;;2.40;99.90;;;;;;5072155;28;20198;-59
2020/12/26 07:06:45;;;;;;;19.10;9.93;;;2.30;99.90;;;;;;5069414;28;20322;-58
2020/12/26 07:09:13;;;;;;;21.80;10.90;;;2.30;99.90;;;;;;5071870;28;20208;-55
2020/12/26 07:11:43;;;;;;;19.37;11.03;;;2.20;99.90;;;;;;5071489;28;20201;-60
2020/12/26 07:14:10;;;;;;;21.60;10.70;;;2.10;99.90;;;;;;5071275;28;20573;-57
2020/12/26 07:16:41;;;;;;;16.53;9.07;;;2.20;99.90;;;;;;5065257;28;20218;-58
2020/12/26 07:19:30;;;;;;;19.47;10.40;;;2.10;99.90;;;;;;5071202;28;20687;-61
2020/12/26 07:21:59;;;;;;;22.70;10.30;;;2.10;99.90;;;;;;5067884;28;20237;-61
2020/12/26 07:24:30;;;;;;;20.30;11.80;;;2.20;99.90;;;;;;5071464;28;20218;-61
2020/12/26 07:27:15;;;;;;;17.57;10.77;;;2.10;99.90;;;;;;5071046;28;20222;-59
2020/12/26 07:29:50;;;;;;;20.13;10.40;;;2.10;99.90;;;;;;5070993;28;20263;-61
2020/12/26 07:32:40;;;;;;;22.03;11.50;;;2.10;99.90;;;;;;5068743;28;20205;-56
2020/12/26 07:35:08;;;;;;;18.13;10.17;;;2.00;99.90;;;;;;5058562;28;20221;-56
2020/12/26 07:37:35;;;;;;;18.93;10.33;;;2.00;99.90;;;;;;5071203;28;20218;-59
2020/12/26 07:40:01;;;;;;;15.40;9.67;;;2.00;99.90;;;;;;5070679;28;20198;-60
2020/12/26 07:42:29;;;;;;;17.30;9.70;;;1.90;99.90;;;;;;5068630;28;20240;-57
2020/12/26 07:44:56;;;;;;;21.00;9.00;;;1.90;99.90;;;;;;5070805;28;20689;-55
2020/12/26 07:47:23;;;;;;;15.07;8.83;;;1.90;99.90;;;;;;5070595;28;20282;-58
2020/12/26 07:49:57;;;;;;;17.00;8.87;;;1.80;99.90;;;;;;5071267;28;20213;-60
2020/12/26 07:52:23;;;;;;;23.83;11.83;;;1.80;99.90;;;;;;5067632;28;20194;-55
2020/12/26 07:54:58;;;;;;;16.40;8.67;;;1.80;99.90;;;;;;5070908;28;20202;-59
2020/12/26 07:57:25;;;;;;;16.47;8.90;;;1.70;99.90;;;;;;5068045;28;20704;-57
2020/12/26 07:59:51;;;;;;;19.27;9.50;;;1.80;99.90;;;;;;5071382;28;20222;-55
2020/12/26 08:02:17;;;;;;;13.57;8.33;;;1.90;99.90;;;;;;5070149;28;20214;-55
2020/12/26 08:04:45;;;;;;;16.83;9.03;;;1.90;99.90;;;;;;5070085;28;20194;-55
2020/12/26 08:07:11;;;;;;;16.33;8.97;;;2.00;99.90;;;;;;5074093;28;20222;-58
2020/12/26 08:09:38;;;;;;;14.83;9.10;;;2.00;99.90;;;;;;5077419;28;20198;-58
2020/12/26 08:12:06;;;;;;;15.10;8.43;;;2.00;99.90;;;;;;5076403;28;20198;-61
2020/12/26 08:14:33;;;;;;;15.63;8.57;;;2.10;99.90;;;;;;5075109;28;20202;-58
2020/12/26 08:16:59;;;;;;;13.93;8.53;;;2.10;99.90;;;;;;5076615;28;20694;-59
2020/12/26 08:19:26;;;;;;;16.00;8.93;;;2.20;99.90;;;;;;5076976;28;20216;-59
2020/12/26 08:21:57;;;;;;;16.07;9.00;;;2.20;99.90;;;;;;5075877;28;20583;-57
2020/12/26 08:24:24;;;;;;;16.60;9.13;;;2.20;99.90;;;;;;5076784;28;20669;-59
2020/12/26 08:26:53;;;;;;;16.87;9.13;;;2.30;99.90;;;;;;5075889;28;20226;-58
2020/12/26 08:29:25;;;;;;;17.23;9.27;;;2.30;99.90;;;;;;5076911;28;20198;-55
2020/12/26 08:31:58;;;;;;;16.47;8.57;;;2.30;99.90;;;;;;5065412;28;20194;-56
2020/12/26 08:34:38;;;;;;;18.97;9.80;;;2.30;99.90;;;;;;5076295;28;20454;-55
2020/12/26 08:37:11;;;;;;;15.83;9.30;;;2.30;99.90;;;;;;5076194;28;20225;-56
2020/12/26 08:39:40;;;;;;;15.80;9.20;;;2.30;99.90;;;;;;5075515;28;20202;-58
2020/12/26 08:42:13;;;;;;;14.30;9.27;;;2.30;99.90;;;;;;5075170;28;20245;-62
2020/12/26 08:44:40;;;;;;;18.03;10.00;;;2.40;99.90;;;;;;5075475;28;20206;-55
2020/12/26 08:47:07;;;;;;;18.00;9.13;;;2.40;99.90;;;;;;5074927;28;20228;-55
2020/12/26 08:49:34;;;;;;;18.77;8.67;;;2.40;99.90;;;;;;5076053;28;20198;-56
2020/12/26 08:52:01;;;;;;;14.20;8.73;;;2.40;99.90;;;;;;5076339;28;20194;-55
2020/12/26 08:54:27;;;;;;;16.27;9.57;;;2.50;99.90;;;;;;5074090;28;20255;-58
2020/12/26 08:56:54;;;;;;;17.47;10.47;;;2.60;99.90;;;;;;5074237;28;20233;-59
2020/12/26 08:59:27;;;;;;;15.03;8.93;;;2.60;99.90;;;;;;5075523;28;20208;-57
2020/12/26 09:01:55;;;;;;;23.37;11.00;;;2.70;99.90;;;;;;5075287;28;20637;-62
2020/12/26 09:04:22;;;;;;;19.17;10.63;;;2.80;99.90;;;;;;5076588;28;20194;-61
2020/12/26 09:06:48;;;;;;;18.27;10.70;;;2.90;99.90;;;;;;5063401;28;20309;-57
2020/12/26 09:09:16;;;;;;;20.80;11.13;;;2.90;99.90;;;;;;5060903;28;20201;-59
2020/12/26 09:11:43;;;;;;;21.07;10.90;;;3.00;99.90;;;;;;5062371;28;20240;-58
2020/12/26 09:14:16;;;;;;;17.03;10.53;;;3.10;99.90;;;;;;5062697;28;20271;-62
2020/12/26 09:16:43;;;;;;;18.43;11.00;;;3.20;99.90;;;;;;5063450;28;20221;-57
2020/12/26 09:19:10;;;;;;;20.07;10.70;;;3.20;99.90;;;;;;5061811;28;20199;-61
2020/12/26 09:21:36;;;;;;;18.87;10.93;;;3.20;99.90;;;;;;5057120;28;20223;-56
2020/12/26 09:24:02;;;;;;;23.67;10.53;;;3.20;99.90;;;;;;5062566;28;20209;-58
2020/12/26 09:26:34;;;;;;;18.53;10.10;;;3.30;99.90;;;;;;5057370;28;20302;-58
2020/12/26 09:29:02;;;;;;;20.83;12.03;;;3.30;99.90;;;;;;5060675;28;20210;-58
2020/12/26 09:31:30;;;;;;;22.47;12.70;;;3.40;99.90;;;;;;5060844;28;20202;-60
2020/12/26 09:33:58;;;;;;;24.10;13.97;;;3.50;99.90;;;;;;5059925;28;20202;-59
2020/12/26 09:36:27;;;;;;;24.67;14.00;;;3.50;99.90;;;;;;5064997;28;20218;-59
2020/12/26 09:38:55;;;;;;;25.33;14.43;;;3.60;99.90;;;;;;5072493;28;20202;-60
2020/12/26 09:41:23;;;;;;;24.13;14.13;;;3.60;99.90;;;;;;5073329;28;20194;-56
2020/12/26 09:43:51;;;;;;;25.53;15.17;;;3.70;99.90;;;;;;5072794;28;20286;-59
2020/12/26 09:46:18;;;;;;;26.17;15.60;;;3.70;99.90;;;;;;5072626;28;20222;-60
2020/12/26 09:48:45;;;;;;;28.77;16.07;;;3.80;99.90;;;;;;5071026;28;20203;-61
2020/12/26 09:51:14;;;;;;;26.67;15.93;;;3.90;99.90;;;;;;5066620;28;20202;-60
2020/12/26 09:53:42;;;;;;;29.27;16.10;;;3.90;99.90;;;;;;5070351;28;20209;-61
2020/12/26 09:56:09;;;;;;;27.23;15.43;;;4.00;99.90;;;;;;5069499;28;20226;-62
2020/12/26 09:58:36;;;;;;;31.27;15.40;;;4.00;99.90;;;;;;5067710;28;20216;-60
2020/12/26 10:01:02;;;;;;;27.60;15.97;;;4.00;99.90;;;;;;5065769;28;20201;-60
2020/12/26 10:03:29;;;;;;;27.77;15.83;;;4.10;99.90;;;;;;5069476;28;20215;-60
2020/12/26 10:05:55;;;;;;;29.73;16.13;;;4.20;99.90;;;;;;5070474;28;20248;-59
2020/12/26 10:08:22;;;;;;;27.20;15.17;;;4.20;99.90;;;;;;5072192;28;20202;-61
2020/12/26 10:10:49;;;;;;;28.17;16.07;;;4.30;99.90;;;;;;5065094;28;20195;-62
2020/12/26 10:13:15;;;;;;;25.77;16.10;;;4.40;99.90;;;;;;5064233;28;20281;-63
2020/12/26 10:15:42;;;;;;;26.93;16.03;;;4.40;99.90;;;;;;5061683;28;20233;-62
2020/12/26 10:18:08;;;;;;;23.37;14.23;;;4.40;99.90;;;;;;5065742;28;20256;-63
2020/12/26 10:20:34;;;;;;;28.87;14.93;;;4.40;99.90;;;;;;5060032;28;20670;-63
2020/12/26 10:23:01;;;;;;;28.20;15.47;;;4.30;99.90;;;;;;5058028;28;20688;-63
2020/12/26 10:25:27;;;;;;;25.67;15.23;;;4.40;99.90;;;;;;5061672;28;20205;-61
2020/12/26 10:27:54;;;;;;;25.70;14.73;;;4.30;99.90;;;;;;5068463;28;20202;-64
2020/12/26 10:30:21;;;;;;;26.27;15.57;;;4.30;99.90;;;;;;5061168;28;20367;-61
2020/12/26 10:32:47;;;;;;;30.27;17.10;;;4.30;99.90;;;;;;5071883;28;20259;-65
2020/12/26 10:35:14;;;;;;;27.47;14.90;;;4.30;99.90;;;;;;5060976;28;20198;-65
2020/12/26 10:37:40;;;;;;;27.17;15.50;;;4.40;99.90;;;;;;5057899;28;20219;-64
2020/12/26 10:40:07;;;;;;;25.60;15.63;;;4.40;99.90;;;;;;5057984;28;20211;-62
2020/12/26 10:42:33;;;;;;;30.40;16.60;;;4.40;99.90;;;;;;5060454;28;20218;-64
2020/12/26 10:45:01;;;;;;;25.93;15.63;;;4.40;99.90;;;;;;5057297;28;20198;-63
2020/12/26 10:47:27;;;;;;;21.83;13.10;;;4.40;99.90;;;;;;5069240;28;20249;-64
2020/12/26 10:49:53;;;;;;;26.17;14.23;;;4.50;99.90;;;;;;5066977;28;20206;-63
2020/12/26 10:52:20;;;;;;;22.83;13.77;;;4.60;99.90;;;;;;5058145;28;20191;-64
2020/12/26 10:54:46;;;;;;;25.57;14.50;;;4.70;99.90;;;;;;5059314;28;20634;-63
2020/12/26 10:57:12;;;;;;;26.53;14.07;;;4.80;99.90;;;;;;5063367;28;20233;-64
2020/12/26 10:59:39;;;;;;;23.27;12.90;;;4.80;99.90;;;;;;5055089;28;20277;-59
2020/12/26 11:02:06;;;;;;;27.83;13.77;;;4.80;99.90;;;;;;5060571;28;20230;-62
2020/12/26 11:04:32;;;;;;;24.47;13.30;;;4.80;99.90;;;;;;5056634;28;21486;-63
2020/12/26 11:07:01;;;;;;;24.13;14.13;;;4.80;99.90;;;;;;5060430;28;20232;-58
2020/12/26 11:09:28;;;;;;;23.30;13.90;;;4.80;99.90;;;;;;5070830;28;20786;-61
2020/12/26 11:11:54;;;;;;;21.77;12.83;;;4.80;99.90;;;;;;5070133;28;20657;-64
2020/12/26 11:14:20;;;;;;;26.07;13.10;;;4.70;99.90;;;;;;5071072;28;20206;-63
2020/12/26 11:16:47;;;;;;;22.07;13.40;;;4.70;99.90;;;;;;5069050;28;20221;-60
2020/12/26 11:19:15;;;;;;;22.63;13.83;;;4.70;99.90;;;;;;5071202;28;20285;-63
2020/12/26 11:21:41;;;;;;;22.87;13.27;;;4.70;99.90;;;;;;5069971;28;20218;-61
2020/12/26 11:24:08;;;;;;;25.37;13.73;;;4.70;99.90;;;;;;5065936;28;20627;-63
2020/12/26 11:26:34;;;;;;;21.03;11.50;;;4.80;99.90;;;;;;5065597;28;20222;-61
2020/12/26 11:29:01;;;;;;;21.90;12.57;;;4.80;99.90;;;;;;5067474;28;20217;-64
2020/12/26 11:31:27;;;;;;;20.97;12.23;;;4.80;99.90;;;;;;5068197;28;20733;-60
2020/12/26 11:33:54;;;;;;;19.43;11.87;;;4.80;99.90;;;;;;5067792;28;20202;-64
2020/12/26 11:36:22;;;;;;;21.07;12.30;;;4.80;99.90;;;;;;5067486;28;20700;-64
2020/12/26 11:38:50;;;;;;;22.07;12.50;;;4.80;99.90;;;;;;5070692;28;20673;-64
2020/12/26 11:41:17;;;;;;;22.23;12.50;;;4.80;99.90;;;;;;5070022;28;20210;-64
2020/12/26 11:43:43;;;;;;;20.30;12.40;;;4.80;99.90;;;;;;5071021;28;20232;-62
2020/12/26 11:46:10;;;;;;;21.33;11.67;;;4.80;99.90;;;;;;5069616;28;20222;-62
2020/12/26 11:48:36;;;;;;;17.07;11.40;;;4.90;99.90;;;;;;5071360;28;20210;-64
2020/12/26 11:51:03;;;;;;;21.43;12.23;;;4.80;99.90;;;;;;5068155;28;20203;-64
2020/12/26 11:53:31;;;;;;;18.80;10.80;;;4.90;99.90;;;;;;5067026;28;20201;-63
2020/12/26 11:55:57;;;;;;;19.27;10.43;;;4.90;99.90;;;;;;5069594;28;20226;-64
2020/12/26 11:58:24;;;;;;;14.50;9.80;;;4.90;99.90;;;;;;5070643;28;20700;-63
2020/12/26 12:00:51;;;;;;;18.13;10.50;;;4.90;99.90;;;;;;5070684;28;20210;-64
2020/12/26 12:03:17;;;;;;;17.67;10.07;;;4.90;99.90;;;;;;5070236;28;20219;-63
2020/12/26 12:05:44;;;;;;;22.33;11.03;;;4.90;99.90;;;;;;5070798;28;20206;-62
2020/12/26 12:08:10;;;;;;;17.03;10.50;;;4.90;99.90;;;;;;5070456;28;20202;-63
2020/12/26 12:10:39;;;;;;;17.47;10.13;;;4.90;99.90;;;;;;5070809;28;20685;-64
2020/12/26 12:13:05;;;;;;;15.57;10.07;;;4.90;99.90;;;;;;5068630;28;20194;-62
2020/12/26 12:15:32;;;;;;;16.60;9.60;;;5.00;99.90;;;;;;5066254;28;20730;-65
2020/12/26 12:17:59;;;;;;;18.63;10.27;;;5.00;99.90;;;;;;5068585;28;20202;-60
2020/12/26 12:20:26;;;;;;;14.37;9.00;;;5.00;99.90;;;;;;5065406;28;20278;-63
2020/12/26 12:22:53;;;;;;;15.80;9.67;;;5.10;99.90;;;;;;5068711;28;20221;-61
2020/12/26 12:25:19;;;;;;;15.63;9.10;;;5.10;99.90;;;;;;5069520;28;20202;-62
2020/12/26 12:27:46;;;;;;;14.93;9.23;;;5.20;99.90;;;;;;5069360;28;20226;-63
2020/12/26 12:30:13;;;;;;;16.93;9.33;;;5.10;99.90;;;;;;5065589;28;20202;-64
2020/12/26 12:32:39;;;;;;;14.40;8.17;;;5.20;99.90;;;;;;5065895;28;20701;-62
2020/12/26 12:35:05;;;;;;;14.17;7.70;;;5.20;99.90;;;;;;5062852;28;20199;-63
2020/12/26 12:37:32;;;;;;;10.67;6.73;;;5.10;99.90;;;;;;5060773;28;20248;-64
2020/12/26 12:39:58;;;;;;;13.90;8.07;;;5.10;99.90;;;;;;5062277;28;20218;-64
2020/12/26 12:42:27;;;;;;;10.67;6.57;;;5.10;99.90;;;;;;5062213;28;20314;-64